Time;durP1;ratioP1;P1;durP2;ratioP2;P2;SDS_P1;SDS_P2;PMS_P1;PMS_P2;Temp;Humidity;BMP_temperature;BMP_pressure;BME280_temperature;BME280_humidity;BME280_pressure;Samples;Min_cycle;Max_cycle;Signal;HPM_P1;HPM_P2
2021/12/04 00:02:24;;;;;;;1.58;1.00;;;;;;;;;;5111576;27;20203;-45
2021/12/04 00:04:52;;;;;;;2.38;1.05;;;;;;;;;;5117058;27;20195;-45
2021/12/04 00:07:21;;;;;;;1.95;1.30;;;;;;;;;;5103237;27;20180;-45
2021/12/04 00:09:49;;;;;;;1.00;0.88;;;;;;;;;;5113089;27;20176;-45
2021/12/04 00:12:15;;;;;;;2.55;1.00;;;;;;;;;;5101875;27;20178;-45
2021/12/04 00:14:42;;;;;;;0.93;0.80;;;;;;;;;;5094331;28;20177;-45
2021/12/04 00:17:08;;;;;;;1.95;1.15;;;;;;;;;;5094483;28;20201;-45
2021/12/04 00:19:34;;;;;;;2.33;1.00;;;;;;;;;;5125459;27;20172;-45
2021/12/04 00:22:01;;;;;;;2.50;1.17;;;;;;;;;;5099254;28;20173;-45
2021/12/04 00:24:27;;;;;;;1.25;0.93;;;;;;;;;;5127310;27;20181;-45
2021/12/04 00:26:54;;;;;;;1.33;1.00;;;;;;;;;;5121699;27;20216;-45
2021/12/04 00:29:20;;;;;;;1.48;1.20;;;;;;;;;;5125867;27;20176;-45
2021/12/04 00:31:49;;;;;;;1.83;1.15;;;;;;;;;;5114867;27;20202;-45
2021/12/04 00:34:17;;;;;;;1.42;0.90;;;;;;;;;;5122857;27;20219;-46
2021/12/04 00:50:11;;;;;;;1.30;0.95;;;;;;;;;;5114055;27;20189;-45
2021/12/04 00:52:37;;;;;;;1.40;1.10;;;;;;;;;;5117219;27;20200;-45
2021/12/04 00:55:04;;;;;;;1.08;0.88;;;;;;;;;;5112053;27;20232;-46
2021/12/04 00:57:30;;;;;;;0.90;0.90;;;;;;;;;;5123468;27;20173;-46
2021/12/04 00:59:56;;;;;;;0.90;0.90;;;;;;;;;;5111260;27;20233;-45
2021/12/04 01:02:22;;;;;;;1.60;0.95;;;;;;;;;;5124436;27;20229;-45
2021/12/04 01:04:48;;;;;;;1.10;1.00;;;;;;;;;;5105490;27;20185;-45
2021/12/04 01:07:14;;;;;;;1.13;1.00;;;;;;;;;;5120849;27;22105;-45
2021/12/04 01:09:41;;;;;;;1.00;0.90;;;;;;;;;;5122891;27;20192;-45
2021/12/04 01:12:07;;;;;;;1.27;1.00;;;;;;;;;;5099790;28;20495;-45
2021/12/04 01:14:33;;;;;;;0.88;0.88;;;;;;;;;;5110602;27;20180;-45
2021/12/04 01:17:00;;;;;;;1.02;0.90;;;;;;;;;;5114233;27;20209;-45
2021/12/04 01:19:26;;;;;;;1.17;0.77;;;;;;;;;;5120560;28;20689;-45
2021/12/04 01:21:53;;;;;;;0.70;0.70;;;;;;;;;;5113288;28;20490;-45
2021/12/04 01:24:19;;;;;;;1.45;0.85;;;;;;;;;;5123279;28;20470;-45
2021/12/04 01:26:45;;;;;;;0.77;0.77;;;;;;;;;;5125982;28;20340;-45
2021/12/04 01:29:12;;;;;;;0.77;0.77;;;;;;;;;;5122475;28;20181;-45
2021/12/04 01:31:38;;;;;;;0.93;0.90;;;;;;;;;;5125608;28;20215;-46
2021/12/04 01:34:04;;;;;;;1.10;1.00;;;;;;;;;;5100930;28;20189;-45
2021/12/04 01:36:30;;;;;;;1.10;0.82;;;;;;;;;;5115740;28;20676;-45
2021/12/04 01:38:56;;;;;;;1.48;0.80;;;;;;;;;;5111148;28;20193;-45
2021/12/04 01:41:22;;;;;;;1.20;1.00;;;;;;;;;;5123772;27;20268;-45
2021/12/04 01:43:48;;;;;;;0.60;0.60;;;;;;;;;;5117591;27;20251;-45
2021/12/04 01:46:14;;;;;;;0.80;0.70;;;;;;;;;;5121237;27;20442;-45
2021/12/04 01:48:40;;;;;;;1.33;0.73;;;;;;;;;;5123123;27;20192;-45
2021/12/04 01:51:06;;;;;;;1.00;0.90;;;;;;;;;;5120255;27;20490;-45
2021/12/04 01:53:32;;;;;;;0.70;0.70;;;;;;;;;;5118888;27;20196;-45
2021/12/04 01:55:59;;;;;;;0.85;0.80;;;;;;;;;;5121854;27;20201;-45
2021/12/04 01:58:26;;;;;;;1.45;0.90;;;;;;;;;;5125728;27;20559;-45
2021/12/04 02:00:52;;;;;;;1.00;0.80;;;;;;;;;;5124364;27;20212;-45
2021/12/04 02:03:19;;;;;;;0.73;0.73;;;;;;;;;;5115413;27;20247;-45
2021/12/04 02:05:46;;;;;;;1.00;0.70;;;;;;;;;;5114059;27;20231;-45
2021/12/04 02:08:13;;;;;;;2.63;0.73;;;;;;;;;;5123424;27;20503;-45
2021/12/04 02:10:39;;;;;;;1.50;0.90;;;;;;;;;;5118977;27;20544;-45
2021/12/04 02:13:05;;;;;;;0.73;0.73;;;;;;;;;;5115094;27;20601;-45
2021/12/04 02:15:31;;;;;;;0.68;0.68;;;;;;;;;;5121597;27;20205;-45
2021/12/04 02:17:57;;;;;;;0.80;0.80;;;;;;;;;;5122193;27;20180;-45
2021/12/04 02:20:24;;;;;;;0.70;0.60;;;;;;;;;;5122396;27;20181;-45
2021/12/04 02:22:50;;;;;;;1.00;0.90;;;;;;;;;;5114847;27;20177;-45
2021/12/04 02:25:16;;;;;;;0.70;0.70;;;;;;;;;;5128451;27;20237;-45
2021/12/04 02:27:43;;;;;;;0.65;0.65;;;;;;;;;;5119135;27;20176;-45
2021/12/04 02:30:13;;;;;;;1.20;0.80;;;;;;;;;;5117079;27;20178;-45
2021/12/04 02:32:40;;;;;;;3.17;0.85;;;;;;;;;;5104800;27;20185;-45
2021/12/04 02:35:07;;;;;;;0.75;0.75;;;;;;;;;;5102475;27;20219;-45
2021/12/04 02:37:34;;;;;;;0.80;0.60;;;;;;;;;;5113882;27;20176;-45
2021/12/04 02:40:00;;;;;;;0.65;0.65;;;;;;;;;;5116899;27;20458;-45
2021/12/04 02:42:29;;;;;;;0.77;0.77;;;;;;;;;;5126918;27;20173;-46
2021/12/04 02:44:55;;;;;;;0.80;0.70;;;;;;;;;;5120578;27;20185;-45
2021/12/04 02:47:22;;;;;;;0.80;0.80;;;;;;;;;;5114134;27;20182;-45
2021/12/04 02:49:48;;;;;;;0.77;0.70;;;;;;;;;;5123751;27;20186;-45
2021/12/04 02:52:15;;;;;;;0.60;0.60;;;;;;;;;;5103415;27;20173;-46
2021/12/04 02:54:41;;;;;;;0.50;0.50;;;;;;;;;;5121633;27;20185;-45
2021/12/04 02:57:09;;;;;;;0.70;0.70;;;;;;;;;;5124392;27;20456;-45
2021/12/04 02:59:37;;;;;;;0.70;0.70;;;;;;;;;;5128299;27;20222;-45
2021/12/04 03:02:04;;;;;;;0.70;0.70;;;;;;;;;;5120385;27;20451;-45
2021/12/04 03:04:31;;;;;;;0.75;0.70;;;;;;;;;;5102994;27;20617;-45
2021/12/04 03:06:58;;;;;;;0.80;0.75;;;;;;;;;;5118748;27;20223;-45
2021/12/04 03:09:24;;;;;;;0.50;0.50;;;;;;;;;;5122159;27;20204;-45
2021/12/04 03:11:50;;;;;;;0.65;0.65;;;;;;;;;;5121239;27;20591;-45
2021/12/04 03:14:17;;;;;;;0.50;0.50;;;;;;;;;;5123403;27;20216;-45
2021/12/04 03:16:44;;;;;;;0.70;0.70;;;;;;;;;;5120931;27;20224;-45
2021/12/04 03:19:10;;;;;;;0.60;0.60;;;;;;;;;;5126900;27;20190;-45
2021/12/04 03:21:38;;;;;;;0.50;0.50;;;;;;;;;;5109170;27;20237;-45
2021/12/04 03:24:07;;;;;;;0.60;0.60;;;;;;;;;;5125010;27;20279;-45
2021/12/04 03:26:34;;;;;;;0.90;0.60;;;;;;;;;;5118967;27;20186;-45
2021/12/04 03:29:04;;;;;;;0.77;0.75;;;;;;;;;;5110885;27;20540;-45
2021/12/04 03:42:10;;;;;;;0.55;0.55;;;;;;;;;;5127443;27;20638;-45
2021/12/04 03:44:38;;;;;;;0.52;0.52;;;;;;;;;;5119846;27;20188;-45
2021/12/04 03:47:04;;;;;;;0.73;0.70;;;;;;;;;;5119661;27;20488;-45
2021/12/04 03:49:30;;;;;;;0.70;0.70;;;;;;;;;;5123996;27;20187;-45
2021/12/04 03:51:56;;;;;;;0.55;0.55;;;;;;;;;;5112779;27;20297;-45
2021/12/04 03:54:23;;;;;;;0.70;0.70;;;;;;;;;;5119923;27;20661;-45
2021/12/04 03:56:51;;;;;;;0.60;0.60;;;;;;;;;;5125539;27;20613;-45
2021/12/04 03:59:20;;;;;;;0.70;0.70;;;;;;;;;;5123781;27;20169;-45
2021/12/04 04:01:46;;;;;;;0.60;0.60;;;;;;;;;;5114362;27;20207;-45
2021/12/04 04:04:12;;;;;;;0.82;0.80;;;;;;;;;;5113601;27;20197;-46
2021/12/04 04:06:38;;;;;;;0.70;0.68;;;;;;;;;;5112183;27;20320;-45
2021/12/04 04:09:04;;;;;;;0.50;0.50;;;;;;;;;;5112853;27;20272;-45
2021/12/04 04:11:32;;;;;;;0.50;0.50;;;;;;;;;;5123159;27;20182;-45
2021/12/04 04:13:58;;;;;;;0.70;0.50;;;;;;;;;;5120972;27;20176;-45
2021/12/04 04:16:24;;;;;;;0.93;0.80;;;;;;;;;;5127292;27;20545;-45
2021/12/04 04:18:50;;;;;;;0.52;0.52;;;;;;;;;;5118276;27;20180;-45
2021/12/04 04:21:16;;;;;;;1.70;1.00;;;;;;;;;;5116588;27;20189;-45
2021/12/04 04:23:42;;;;;;;0.50;0.50;;;;;;;;;;5112288;27;20426;-46
2021/12/04 04:26:08;;;;;;;0.50;0.50;;;;;;;;;;5125585;27;20195;-45
2021/12/04 04:28:34;;;;;;;0.47;0.47;;;;;;;;;;5125586;27;20188;-44
2021/12/04 04:31:00;;;;;;;0.60;0.60;;;;;;;;;;5115263;27;20173;-45
2021/12/04 04:33:26;;;;;;;0.80;0.60;;;;;;;;;;5118911;27;20404;-45
2021/12/04 04:36:22;;;;;;;0.75;0.57;;;;;;;;;;5118477;27;20218;-45
2021/12/04 05:00:51;;;;;;;0.60;0.60;;;;;;;;;;5122314;27;20209;-45
2021/12/04 05:11:22;;;;;;;0.50;0.50;;;;;;;;;;5114256;28;20187;-45
2021/12/04 05:13:50;;;;;;;0.73;0.70;;;;;;;;;;5121355;27;20195;-45
2021/12/04 05:16:17;;;;;;;0.50;0.50;;;;;;;;;;5116502;28;20235;-46
2021/12/04 05:18:56;;;;;;;0.80;0.80;;;;;;;;;;5120429;27;20552;-45
2021/12/04 05:21:23;;;;;;;0.80;0.80;;;;;;;;;;5110932;28;20181;-45
2021/12/04 05:23:55;;;;;;;0.73;0.73;;;;;;;;;;5111921;28;20184;-45
2021/12/04 05:26:25;;;;;;;0.77;0.65;;;;;;;;;;5116000;28;20173;-45
2021/12/04 05:28:53;;;;;;;1.23;0.70;;;;;;;;;;5120958;28;20218;-45
2021/12/04 05:31:20;;;;;;;0.65;0.50;;;;;;;;;;5109263;28;20560;-45
2021/12/04 05:33:46;;;;;;;0.55;0.55;;;;;;;;;;5109957;28;20187;-45
2021/12/04 05:36:12;;;;;;;0.60;0.60;;;;;;;;;;5102434;28;20228;-45
2021/12/04 05:38:39;;;;;;;0.75;0.60;;;;;;;;;;5123011;28;20268;-45
2021/12/04 05:41:05;;;;;;;2.10;0.70;;;;;;;;;;5119546;28;20193;-45
2021/12/04 05:43:31;;;;;;;0.70;0.70;;;;;;;;;;5103255;28;20545;-45
2021/12/04 05:46:04;;;;;;;3.35;0.70;;;;;;;;;;5131263;28;20208;-45
2021/12/04 05:54:01;;;;;;;0.80;0.80;;;;;;;;;;5117798;28;20194;-45
2021/12/04 05:56:29;;;;;;;6.90;0.90;;;;;;;;;;5115276;28;20242;-45
2021/12/04 05:58:55;;;;;;;2.70;0.80;;;;;;;;;;5118957;28;20178;-45
2021/12/04 06:01:22;;;;;;;3.90;1.33;;;;;;;;;;5100862;28;20205;-45
2021/12/04 06:03:48;;;;;;;3.80;0.70;;;;;;;;;;5108682;28;20188;-45
2021/12/04 06:06:15;;;;;;;7.53;0.82;;;;;;;;;;5112296;28;20186;-45
2021/12/04 06:08:41;;;;;;;5.15;1.15;;;;;;;;;;5122804;28;20177;-45
2021/12/04 06:11:08;;;;;;;1.55;0.63;;;;;;;;;;5119421;28;20177;-45
2021/12/04 06:13:34;;;;;;;1.23;0.80;;;;;;;;;;5119665;28;20195;-45
2021/12/04 06:16:00;;;;;;;2.55;0.80;;;;;;;;;;5117617;28;20201;-45
2021/12/04 06:18:26;;;;;;;2.33;0.80;;;;;;;;;;5122967;28;20184;-45
2021/12/04 06:23:36;;;;;;;3.33;1.00;;;;;;;;;;5107252;28;20215;-45
2021/12/04 06:26:05;;;;;;;0.90;0.90;;;;;;;;;;5115280;27;20186;-45
2021/12/04 06:28:31;;;;;;;1.38;1.10;;;;;;;;;;5119619;27;20493;-45
2021/12/04 06:30:59;;;;;;;1.40;0.90;;;;;;;;;;5115113;27;20200;-45
2021/12/04 06:33:26;;;;;;;1.67;0.75;;;;;;;;;;5123863;27;20181;-45
2021/12/04 06:35:52;;;;;;;1.70;0.80;;;;;;;;;;5122871;27;20284;-45
2021/12/04 06:38:18;;;;;;;1.05;0.90;;;;;;;;;;5111756;27;20184;-45
2021/12/04 06:40:46;;;;;;;0.82;0.70;;;;;;;;;;5118492;27;20176;-45
2021/12/04 06:43:12;;;;;;;1.77;0.77;;;;;;;;;;5117301;27;20240;-45
2021/12/04 06:45:41;;;;;;;1.17;0.70;;;;;;;;;;5127567;27;20230;-45
2021/12/04 06:48:14;;;;;;;2.30;0.88;;;;;;;;;;5127529;27;20188;-45
2021/12/04 06:50:45;;;;;;;2.10;0.88;;;;;;;;;;5120395;27;20165;-45
2021/12/04 06:53:39;;;;;;;1.77;1.13;;;;;;;;;;5114950;27;20242;-46
2021/12/04 06:55:59;;;;;;;2.38;0.80;;;;;;;;;;5118181;27;20290;-45
2021/12/04 06:58:26;;;;;;;1.02;0.80;;;;;;;;;;5111823;27;20501;-45
2021/12/04 07:00:54;;;;;;;3.05;0.80;;;;;;;;;;5118434;27;20238;-45
2021/12/04 07:03:20;;;;;;;1.65;0.98;;;;;;;;;;5120991;27;20190;-46
2021/12/04 07:05:47;;;;;;;2.00;0.93;;;;;;;;;;5122231;27;20279;-46
2021/12/04 07:08:13;;;;;;;3.40;1.00;;;;;;;;;;5118523;27;20182;-46
2021/12/04 07:10:39;;;;;;;2.20;0.65;;;;;;;;;;5122289;27;20184;-46
2021/12/04 07:13:06;;;;;;;5.40;0.98;;;;;;;;;;5102181;28;20208;-46
2021/12/04 07:15:32;;;;;;;2.28;0.90;;;;;;;;;;5124407;27;20207;-46
2021/12/04 07:17:59;;;;;;;4.95;1.10;;;;;;;;;;5110800;27;20556;-46
2021/12/04 07:20:26;;;;;;;1.45;0.80;;;;;;;;;;5102802;27;20182;-46
2021/12/04 07:22:52;;;;;;;4.10;1.20;;;;;;;;;;5087799;28;20565;-46
2021/12/04 07:25:18;;;;;;;6.32;1.33;;;;;;;;;;5106673;27;20185;-45
2021/12/04 07:27:46;;;;;;;4.85;0.90;;;;;;;;;;5112656;27;20184;-45
2021/12/04 07:30:13;;;;;;;3.83;1.05;;;;;;;;;;5116658;27;20177;-45
2021/12/04 07:32:39;;;;;;;3.08;0.90;;;;;;;;;;5102761;28;20565;-45
2021/12/04 07:35:06;;;;;;;4.68;0.98;;;;;;;;;;5119736;27;20653;-51
2021/12/04 07:37:32;;;;;;;3.90;1.20;;;;;;;;;;5121194;27;20245;-56
2021/12/04 07:39:58;;;;;;;5.40;1.02;;;;;;;;;;5119976;27;20185;-46
2021/12/04 07:43:48;;;;;;;4.57;1.02;;;;;;;;;;5063064;28;20576;-49
2021/12/04 07:46:14;;;;;;;3.25;1.10;;;;;;;;;;5048676;28;20191;-48
2021/12/04 07:48:40;;;;;;;3.95;1.20;;;;;;;;;;5039811;28;20194;-47
2021/12/04 07:51:06;;;;;;;3.85;1.00;;;;;;;;;;5041926;28;20180;-46
2021/12/04 07:53:33;;;;;;;5.22;0.90;;;;;;;;;;5041575;28;20179;-44
2021/12/04 07:55:59;;;;;;;6.47;1.38;;;;;;;;;;5050420;28;20236;-48
2021/12/04 07:58:25;;;;;;;3.20;0.73;;;;;;;;;;5048167;28;20218;-49
2021/12/04 08:00:51;;;;;;;5.47;1.13;;;;;;;;;;5048483;28;20227;-44
2021/12/04 08:03:17;;;;;;;5.13;1.10;;;;;;;;;;5048297;28;20311;-46
2021/12/04 08:05:44;;;;;;;4.22;0.95;;;;;;;;;;5040290;28;20872;-43
2021/12/04 08:08:10;;;;;;;6.00;1.17;;;;;;;;;;5037875;28;20190;-45
2021/12/04 08:10:36;;;;;;;2.00;0.88;;;;;;;;;;5037050;28;20179;-45
2021/12/04 08:13:03;;;;;;;7.57;1.00;;;;;;;;;;5041006;28;20179;-44
2021/12/04 08:15:30;;;;;;;7.47;1.98;;;;;;;;;;5048224;28;20207;-44
2021/12/04 08:17:56;;;;;;;6.45;1.38;;;;;;;;;;5043437;28;20248;-45
2021/12/04 08:20:25;;;;;;;4.28;1.10;;;;;;;;;;5038785;28;20183;-45
2021/12/04 08:22:51;;;;;;;2.83;1.23;;;;;;;;;;5048575;28;20583;-45
2021/12/04 08:25:18;;;;;;;2.05;1.10;;;;;;;;;;5042555;28;20184;-45
2021/12/04 08:27:45;;;;;;;2.83;1.00;;;;;;;;;;5048012;28;20194;-46
2021/12/04 08:30:12;;;;;;;3.38;1.20;;;;;;;;;;5042907;28;20212;-45
2021/12/04 08:32:39;;;;;;;8.77;1.40;;;;;;;;;;5041614;28;20191;-54
2021/12/04 08:35:06;;;;;;;5.13;1.35;;;;;;;;;;5042288;28;20190;-47
2021/12/04 08:37:32;;;;;;;4.95;1.30;;;;;;;;;;5048675;28;20188;-54
2021/12/04 08:39:58;;;;;;;4.03;1.30;;;;;;;;;;5041816;28;20191;-45
2021/12/04 08:42:26;;;;;;;8.63;1.30;;;;;;;;;;5042979;28;20234;-45
2021/12/04 08:44:52;;;;;;;5.03;1.27;;;;;;;;;;5043398;28;20289;-48
2021/12/04 08:47:18;;;;;;;7.18;1.48;;;;;;;;;;5042173;28;20194;-45
2021/12/04 08:49:45;;;;;;;5.38;1.65;;;;;;;;;;5040908;28;20211;-46
2021/12/04 08:52:16;;;;;;;5.05;1.60;;;;;;;;;;5042938;28;20630;-46
2021/12/04 08:54:42;;;;;;;4.22;1.65;;;;;;;;;;5033807;28;20219;-47
2021/12/04 08:57:08;;;;;;;5.80;1.60;;;;;;;;;;5034841;28;20263;-46
2021/12/04 08:59:35;;;;;;;8.30;1.55;;;;;;;;;;5028982;28;20283;-46
2021/12/04 09:02:01;;;;;;;3.63;1.00;;;;;;;;;;5026965;28;20350;-46
2021/12/04 09:04:30;;;;;;;3.78;1.42;;;;;;;;;;5030912;28;20242;-46
2021/12/04 09:06:57;;;;;;;3.28;1.60;;;;;;;;;;5031187;28;20564;-46
2021/12/04 09:09:23;;;;;;;3.08;1.25;;;;;;;;;;5031823;28;20184;-46
2021/12/04 09:11:55;;;;;;;5.07;1.65;;;;;;;;;;5021283;28;20193;-46
2021/12/04 09:14:23;;;;;;;1.88;1.35;;;;;;;;;;5027115;28;20184;-46
2021/12/04 09:16:51;;;;;;;3.85;1.42;;;;;;;;;;5027005;28;20238;-46
2021/12/04 09:19:17;;;;;;;4.35;1.50;;;;;;;;;;5027180;28;20208;-46
2021/12/04 09:21:43;;;;;;;2.10;1.48;;;;;;;;;;5029807;28;20501;-46
2021/12/04 09:24:13;;;;;;;4.13;1.48;;;;;;;;;;5030806;28;20260;-48
2021/12/04 09:32:07;;;;;;;1.55;1.13;;;;;;;;;;5018713;28;20228;-45
2021/12/04 09:34:54;;;;;;;2.67;1.40;;;;;;;;;;5033492;28;20179;-46
2021/12/04 09:59:21;;;;;;;2.10;1.30;;;;;;;;;;5030282;28;20210;-47
2021/12/04 10:02:15;;;;;;;1.80;0.90;;;;;;;;;;5018675;28;20588;-46
2021/12/04 10:34:58;;;;;;;2.65;1.20;;;;;;;;;;5026751;28;20195;-46
2021/12/04 10:37:27;;;;;;;2.40;1.23;;;;;;;;;;5024177;28;20509;-46
2021/12/04 10:39:54;;;;;;;5.47;1.23;;;;;;;;;;5028011;28;20218;-46
2021/12/04 10:42:25;;;;;;;4.35;1.35;;;;;;;;;;5031579;28;20215;-46
2021/12/04 10:44:52;;;;;;;3.15;1.50;;;;;;;;;;5023704;28;20438;-46
2021/12/04 10:47:26;;;;;;;4.97;1.40;;;;;;;;;;5029470;28;20180;-46
2021/12/04 10:52:57;;;;;;;5.68;1.25;;;;;;;;;;5024686;28;20824;-46
2021/12/04 11:03:38;;;;;;;5.65;1.33;;;;;;;;;;5029403;28;20226;-47
2021/12/04 11:47:14;;;;;;;27.67;10.18;;;;;;;;;;5024666;28;20234;-47
2021/12/04 11:49:40;;;;;;;38.15;12.95;;;;;;;;;;5022493;28;20187;-47
2021/12/04 11:52:15;;;;;;;47.53;14.65;;;;;;;;;;5028251;28;20822;-47
2021/12/04 11:54:49;;;;;;;54.58;15.18;;;;;;;;;;5031052;28;20218;-47
2021/12/04 11:57:16;;;;;;;42.10;14.27;;;;;;;;;;5029029;28;20176;-47
2021/12/04 11:59:44;;;;;;;42.53;14.10;;;;;;;;;;5031404;28;20519;-47
2021/12/04 12:02:17;;;;;;;37.03;13.52;;;;;;;;;;5023099;28;20201;-47
2021/12/04 12:04:47;;;;;;;43.88;13.82;;;;;;;;;;5025196;28;20194;-47
2021/12/04 12:07:25;;;;;;;40.40;13.70;;;;;;;;;;5026494;28;20215;-47
2021/12/04 12:10:03;;;;;;;40.72;13.93;;;;;;;;;;5028820;28;20239;-47
2021/12/04 12:12:34;;;;;;;44.42;13.80;;;;;;;;;;5026774;28;20263;-47
2021/12/04 12:15:04;;;;;;;38.00;13.73;;;;;;;;;;5023871;28;20211;-47
2021/12/04 12:17:32;;;;;;;44.75;13.05;;;;;;;;;;5027078;28;20280;-47
2021/12/04 12:19:59;;;;;;;36.22;13.43;;;;;;;;;;5021919;28;20203;-47
2021/12/04 12:22:42;;;;;;;40.22;13.13;;;;;;;;;;5026913;28;20211;-47
2021/12/04 12:25:17;;;;;;;39.50;12.77;;;;;;;;;;5030698;28;20219;-47
2021/12/04 12:38:45;;;;;;;26.90;9.77;;;;;;;;;;5032901;28;20189;-47
2021/12/04 12:41:30;;;;;;;24.80;9.88;;;;;;;;;;5019684;28;20184;-47
2021/12/04 12:44:15;;;;;;;24.70;9.48;;;;;;;;;;5027408;28;20195;-47
2021/12/04 12:46:50;;;;;;;24.05;9.45;;;;;;;;;;5022415;28;20192;-47
2021/12/04 12:49:19;;;;;;;27.25;10.02;;;;;;;;;;5026106;28;20211;-47
2021/12/04 12:51:52;;;;;;;23.63;9.10;;;;;;;;;;5035380;28;20214;-48
2021/12/04 12:54:23;;;;;;;24.25;9.10;;;;;;;;;;5035211;28;20172;-47
2021/12/04 12:56:57;;;;;;;26.80;9.38;;;;;;;;;;5035205;28;20618;-47
2021/12/04 12:59:35;;;;;;;18.58;9.10;;;;;;;;;;5035783;28;20206;-46
2021/12/04 13:13:25;;;;;;;26.85;9.23;;;;;;;;;;5029285;28;20238;-47
2021/12/04 13:15:52;;;;;;;23.83;8.43;;;;;;;;;;5018928;28;20188;-47
2021/12/04 13:18:23;;;;;;;21.77;8.63;;;;;;;;;;5026165;28;20272;-47
2021/12/04 13:20:53;;;;;;;18.63;8.15;;;;;;;;;;5031514;28;20207;-47
2021/12/04 13:23:22;;;;;;;20.80;8.00;;;;;;;;;;5038112;28;20294;-47
2021/12/04 13:25:49;;;;;;;18.58;7.97;;;;;;;;;;5024667;28;20584;-46
2021/12/04 13:28:20;;;;;;;20.65;7.68;;;;;;;;;;5027646;28;20185;-47
2021/12/04 13:30:46;;;;;;;18.65;7.82;;;;;;;;;;5028050;28;20258;-47
2021/12/04 13:33:12;;;;;;;19.52;7.80;;;;;;;;;;5034764;28;20199;-46
2021/12/04 13:35:38;;;;;;;17.85;7.57;;;;;;;;;;5029580;28;20187;-46
2021/12/04 13:38:05;;;;;;;16.83;7.25;;;;;;;;;;5028509;28;20226;-46
2021/12/04 13:40:31;;;;;;;19.08;6.97;;;;;;;;;;5029978;28;20187;-47
2021/12/04 13:42:57;;;;;;;19.45;7.25;;;;;;;;;;5033505;28;20608;-46
2021/12/04 13:45:23;;;;;;;18.65;6.93;;;;;;;;;;5030621;28;20184;-46
2021/12/04 13:47:53;;;;;;;13.73;5.93;;;;;;;;;;5033171;28;20191;-45
2021/12/04 13:53:00;;;;;;;16.33;6.35;;;;;;;;;;5034975;28;20283;-46
2021/12/04 13:55:27;;;;;;;15.45;6.53;;;;;;;;;;5020463;28;20183;-46
2021/12/04 13:57:54;;;;;;;18.20;6.38;;;;;;;;;;5033889;28;20329;-46
2021/12/04 14:00:21;;;;;;;16.95;6.47;;;;;;;;;;5027461;28;20227;-48
2021/12/04 14:02:46;;;;;;;14.20;6.32;;;;;;;;;;5030111;28;20262;-48
2021/12/04 14:05:17;;;;;;;12.68;6.15;;;;;;;;;;5031717;28;20563;-48
2021/12/04 14:07:54;;;;;;;14.35;6.38;;;;;;;;;;5028905;28;20184;-47
2021/12/04 14:10:26;;;;;;;18.15;6.28;;;;;;;;;;5026887;28;20607;-47
2021/12/04 14:12:54;;;;;;;13.00;5.90;;;;;;;;;;5034477;28;20797;-48
2021/12/04 14:15:22;;;;;;;14.13;6.20;;;;;;;;;;5031746;28;20204;-48
2021/12/04 14:17:50;;;;;;;15.02;5.97;;;;;;;;;;5027311;28;20180;-46
2021/12/04 14:20:20;;;;;;;14.48;5.80;;;;;;;;;;5028895;28;20231;-46
2021/12/04 14:22:47;;;;;;;12.25;5.45;;;;;;;;;;5032049;28;20223;-46
2021/12/04 14:25:13;;;;;;;12.00;5.82;;;;;;;;;;5033417;28;20218;-46
2021/12/04 14:27:39;;;;;;;12.63;5.70;;;;;;;;;;5032612;28;20263;-46
2021/12/04 14:30:08;;;;;;;14.05;5.80;;;;;;;;;;5025449;28;20181;-46
2021/12/04 14:32:35;;;;;;;14.30;5.15;;;;;;;;;;5028685;28;20188;-46
2021/12/04 14:35:03;;;;;;;15.88;5.22;;;;;;;;;;5025179;28;20255;-46
2021/12/04 14:37:32;;;;;;;12.43;5.32;;;;;;;;;;5023743;28;20180;-46
2021/12/04 14:39:58;;;;;;;13.70;4.45;;;;;;;;;;5029543;28;20171;-46
2021/12/04 14:42:27;;;;;;;12.00;4.80;;;;;;;;;;5027917;28;20507;-46
2021/12/04 14:44:54;;;;;;;9.23;5.45;;;;;;;;;;5026155;28;20279;-46
2021/12/04 14:47:20;;;;;;;9.75;4.57;;;;;;;;;;5028557;28;20267;-46
2021/12/04 14:49:49;;;;;;;11.70;5.20;;;;;;;;;;5027439;28;20180;-46
2021/12/04 14:52:19;;;;;;;8.55;4.65;;;;;;;;;;5031241;28;20184;-46
2021/12/04 14:54:45;;;;;;;8.60;4.78;;;;;;;;;;5025692;28;20202;-46
2021/12/04 14:57:19;;;;;;;12.30;5.00;;;;;;;;;;5022879;28;20199;-46
2021/12/04 14:59:46;;;;;;;10.57;4.40;;;;;;;;;;5021843;28;20867;-46
2021/12/04 15:02:13;;;;;;;11.18;4.55;;;;;;;;;;5031437;28;20318;-46
2021/12/04 15:04:40;;;;;;;9.07;4.60;;;;;;;;;;5025203;28;21023;-46
2021/12/04 15:07:06;;;;;;;8.65;4.00;;;;;;;;;;5026701;28;20190;-46
2021/12/04 15:09:32;;;;;;;8.00;4.03;;;;;;;;;;5031441;28;20188;-46
2021/12/04 15:12:00;;;;;;;7.20;4.38;;;;;;;;;;5026083;28;20194;-48
2021/12/04 15:14:33;;;;;;;7.97;4.30;;;;;;;;;;5027660;28;20280;-46
2021/12/04 15:17:06;;;;;;;10.68;4.63;;;;;;;;;;5023538;28;20578;-46
2021/12/04 15:19:42;;;;;;;7.35;4.57;;;;;;;;;;5030316;28;20230;-45
2021/12/04 15:22:14;;;;;;;9.18;4.07;;;;;;;;;;5030156;28;20443;-46
2021/12/04 15:24:43;;;;;;;8.90;4.20;;;;;;;;;;5013810;28;20646;-46
2021/12/04 15:27:10;;;;;;;7.93;3.95;;;;;;;;;;5032155;28;20262;-46
2021/12/04 15:29:37;;;;;;;8.85;3.88;;;;;;;;;;5016263;28;20604;-46
2021/12/04 15:32:08;;;;;;;8.73;4.15;;;;;;;;;;5023744;28;20183;-46
2021/12/04 15:34:38;;;;;;;7.10;4.22;;;;;;;;;;5032401;28;20178;-46
2021/12/04 15:37:05;;;;;;;6.68;3.97;;;;;;;;;;5019544;28;20307;-46
2021/12/04 15:39:35;;;;;;;6.97;4.03;;;;;;;;;;5027702;28;20214;-46
2021/12/04 15:48:06;;;;;;;8.65;3.95;;;;;;;;;;5026422;28;20195;-48
2021/12/04 15:55:34;;;;;;;9.55;4.15;;;;;;;;;;5028777;28;20237;-46
2021/12/04 15:58:04;;;;;;;7.88;3.80;;;;;;;;;;5032553;28;20184;-46
2021/12/04 16:00:31;;;;;;;10.35;3.97;;;;;;;;;;5031530;28;20245;-46
2021/12/04 16:02:58;;;;;;;8.60;4.05;;;;;;;;;;5028741;28;20214;-46
2021/12/04 16:05:26;;;;;;;9.88;3.45;;;;;;;;;;5028726;28;20222;-46
2021/12/04 16:08:07;;;;;;;8.60;3.90;;;;;;;;;;5030572;28;20187;-46
2021/12/04 16:10:35;;;;;;;8.75;3.65;;;;;;;;;;5033415;28;20298;-46
2021/12/04 16:13:02;;;;;;;8.43;3.70;;;;;;;;;;5037164;28;20237;-46
2021/12/04 16:15:29;;;;;;;7.95;4.03;;;;;;;;;;5034546;28;20194;-46
2021/12/04 16:17:55;;;;;;;10.63;4.38;;;;;;;;;;5031578;28;20589;-46
2021/12/04 16:20:22;;;;;;;9.05;4.07;;;;;;;;;;5031899;28;20242;-46
2021/12/04 16:22:49;;;;;;;8.55;4.15;;;;;;;;;;5032823;28;20309;-46
2021/12/04 16:25:36;;;;;;;9.13;4.13;;;;;;;;;;5032181;28;20442;-46
2021/12/04 16:38:29;;;;;;;11.75;5.88;;;;;;;;;;5033900;28;20195;-46
2021/12/04 16:40:55;;;;;;;10.02;5.53;;;;;;;;;;5027116;28;20262;-46
2021/12/04 16:43:30;;;;;;;6.85;4.57;;;;;;;;;;5026368;28;20617;-46
2021/12/04 16:45:57;;;;;;;8.48;4.90;;;;;;;;;;5031288;28;20185;-46
2021/12/04 16:48:27;;;;;;;11.45;5.32;;;;;;;;;;5028144;28;20306;-46
2021/12/04 16:58:44;;;;;;;9.10;4.93;;;;;;;;;;5032170;28;20190;-48
2021/12/04 17:01:11;;;;;;;11.93;4.80;;;;;;;;;;5030132;28;20563;-48
2021/12/04 17:03:37;;;;;;;11.38;5.03;;;;;;;;;;5019133;28;20215;-46
2021/12/04 17:06:03;;;;;;;9.93;5.00;;;;;;;;;;5018953;28;20184;-46
2021/12/04 17:08:30;;;;;;;7.97;4.65;;;;;;;;;;5033037;28;20188;-46
2021/12/04 17:10:56;;;;;;;6.75;4.00;;;;;;;;;;5027749;28;20576;-46
2021/12/04 17:13:22;;;;;;;8.45;4.63;;;;;;;;;;5025644;28;20187;-46
2021/12/04 17:15:49;;;;;;;7.95;4.32;;;;;;;;;;5029476;28;20219;-46
2021/12/04 17:18:21;;;;;;;7.43;4.55;;;;;;;;;;5025311;28;20230;-46
2021/12/04 17:20:47;;;;;;;9.18;4.43;;;;;;;;;;5027606;28;20271;-46
2021/12/04 17:23:14;;;;;;;8.75;4.55;;;;;;;;;;5030166;28;20208;-46
2021/12/04 17:25:41;;;;;;;8.75;4.28;;;;;;;;;;5031618;28;20184;-46
2021/12/04 17:28:09;;;;;;;8.10;4.45;;;;;;;;;;5030954;28;20183;-46
2021/12/04 17:30:37;;;;;;;7.60;4.10;;;;;;;;;;5029716;28;20183;-46
2021/12/04 17:33:03;;;;;;;5.95;3.88;;;;;;;;;;5030304;28;20177;-46
2021/12/04 17:35:29;;;;;;;7.38;4.25;;;;;;;;;;5025602;28;20180;-47
2021/12/04 17:37:57;;;;;;;6.47;3.97;;;;;;;;;;5028134;28;20203;-46
2021/12/04 17:40:23;;;;;;;7.10;4.13;;;;;;;;;;5026422;28;20175;-46
2021/12/04 17:42:49;;;;;;;7.50;3.78;;;;;;;;;;5032052;28;20230;-46
2021/12/04 17:45:17;;;;;;;4.80;3.55;;;;;;;;;;5030886;28;20188;-46
2021/12/04 17:47:47;;;;;;;6.63;3.80;;;;;;;;;;5023580;28;20267;-46
2021/12/04 17:50:16;;;;;;;7.35;3.50;;;;;;;;;;5034145;28;20259;-46
2021/12/04 17:52:42;;;;;;;5.80;3.58;;;;;;;;;;5033747;28;20198;-46
2021/12/04 17:55:10;;;;;;;6.25;3.78;;;;;;;;;;5029051;28;20199;-46
2021/12/04 17:57:38;;;;;;;6.57;3.88;;;;;;;;;;5035600;28;20577;-46
2021/12/04 18:00:06;;;;;;;8.40;3.85;;;;;;;;;;5032476;28;20212;-45
2021/12/04 18:02:32;;;;;;;5.10;3.58;;;;;;;;;;5036805;28;20200;-46
2021/12/04 18:05:01;;;;;;;5.38;3.92;;;;;;;;;;5031528;28;20180;-46
2021/12/04 18:07:28;;;;;;;4.50;3.50;;;;;;;;;;5026015;28;20184;-47
2021/12/04 18:09:57;;;;;;;4.45;3.15;;;;;;;;;;5028761;28;20203;-45
2021/12/04 18:12:28;;;;;;;5.85;3.58;;;;;;;;;;5023845;28;20234;-46
2021/12/04 18:14:54;;;;;;;4.38;3.25;;;;;;;;;;5032373;28;20194;-46
2021/12/04 18:17:22;;;;;;;4.43;3.25;;;;;;;;;;5023787;28;20210;-46
2021/12/04 18:19:48;;;;;;;6.13;3.35;;;;;;;;;;5030965;28;20477;-46
2021/12/04 18:22:14;;;;;;;7.45;4.00;;;;;;;;;;5030313;28;20207;-46
2021/12/04 18:24:41;;;;;;;4.22;3.25;;;;;;;;;;5017921;28;20195;-46
2021/12/04 18:27:08;;;;;;;6.78;3.38;;;;;;;;;;5025332;28;20176;-46
2021/12/04 18:29:34;;;;;;;5.15;3.47;;;;;;;;;;5034199;28;20172;-46
2021/12/04 18:32:01;;;;;;;4.85;3.40;;;;;;;;;;5029185;28;20598;-46
2021/12/04 18:34:27;;;;;;;8.23;3.10;;;;;;;;;;5029048;28;20708;-48